DW5566 Weather Reports


Display with metric or nautical units.
time (UTC)temp
F
wind
direction
speed
MPH
gust
MPH
rain 1hr
in
rain 24hr
in
rain mn
in
humidity
%
barometer
mb
20191114182533 59 287 7.0 11.0 0.00 0.00 0.00 84 1014.9
20191114182029 59 293 7.0 11.0 0.00 0.00 0.00 84 1014.9
20191114181539 58 297 7.0 14.0 0.00 0.00 0.00 84 1014.9
20191114181028 58 309 8.0 18.0 0.00 0.00 0.00 84 1015.0
20191114180532 58 302 11.0 23.0 0.00 0.00 0.00 83 1015.0
20191114180056 58 309 16.0 25.0 0.00 0.00 0.00 83 1015.1
20191114175533 59 332 20.0 28.0 0.00 0.00 0.00 82 1015.2
20191114175027 59 286 22.0 32.0 0.00 0.00 0.00 82 1015.1
20191114174619 59 314 24.0 32.0 0.00 0.00 0.00 81 1015.0
20191114174025 60 302 19.0 30.0 0.00 0.00 0.00 80 1015.0
20191114173525 60 314 24.0 30.0 0.00 0.00 0.00 79 1014.7
20191114173041 62 335 18.0 27.0 0.00 0.00 0.00 78 1014.7
20191114172525 62 328 20.0 27.0 0.00 0.00 0.00 76 1014.7
20191114172023 64 335 12.0 17.0 0.00 0.00 0.00 75 1014.7
20191114171616 64 266 8.0 12.0 0.00 0.00 0.00 75 1014.5
20191114171025 64 274 9.0 12.0 0.00 0.00 0.00 74 1014.5
20191114170526 64 282 8.0 12.0 0.00 0.00 0.00 73 1014.4
20191114170053 64 281 9.0 12.0 0.00 0.00 0.00 73 1014.3
20191114165531 64 278 9.0 13.0 0.00 0.00 0.00 73 1014.4
20191114165021 64 266 9.0 13.0 0.00 0.00 0.00 73 1014.2
20191114164528 64 267 10.0 13.0 0.00 0.00 0.00 73 1014.2
20191114164021 64 266 9.0 13.0 0.00 0.00 0.00 73 1014.3
20191114163521 64 277 10.0 13.0 0.00 0.00 0.00 73 1014.3
20191114163052 65 248 10.0 13.0 0.00 0.00 0.00 73 1014.4
20191114162527 65 261 9.0 14.0 0.00 0.00 0.00 73 1014.4
20191114162020 64 278 10.0 14.0 0.00 0.00 0.00 73 1014.5
20191114161559 65 274 9.0 14.0 0.00 0.00 0.00 73 1014.5
20191114161022 65 266 10.0 14.0 0.00 0.00 0.00 72 1014.4
20191114160518 65 287 9.0 13.0 0.00 0.00 0.00 72 1014.4
20191114160051 65 268 8.0 12.0 0.00 0.00 0.00 72 1014.4
20191114155523 65 274 8.0 13.0 0.00 0.00 0.00 72 1014.5
20191114155018 65 271 8.0 13.0 0.00 0.00 0.00 72 1014.6
20191114154532 65 271 8.0 13.0 0.00 0.00 0.00 71 1014.6
20191114154017 65 266 9.0 13.0 0.00 0.00 0.00 71 1014.5
20191114153517 65 259 9.0 12.0 0.00 0.00 0.00 72 1014.5
20191114153102 65 245 8.0 11.0 0.00 0.00 0.00 73 1014.6
20191114152516 65 266 8.0 12.0 0.00 0.00 0.00 74 1014.7
20191114152024 65 279 9.0 13.0 0.00 0.00 0.00 74 1014.7
20191114151604 65 266 9.0 13.0 0.00 0.00 0.00 74 1014.7
20191114151016 64 269 8.0 11.0 0.00 0.00 0.00 75 1014.5
20191114150516 65 264 9.0 13.0 0.00 0.00 0.00 75 1014.6
20191114150028 65 272 9.0 13.0 0.00 0.00 0.00 75 1014.6
20191114145515 65 260 9.0 12.0 0.00 0.00 0.00 75 1014.5
20191114145015 65 271 9.0 11.0 0.00 0.00 0.00 75 1014.6
20191114144521 65 278 8.0 11.0 0.00 0.00 0.00 74 1014.7
20191114144016 65 276 7.0 10.0 0.00 0.00 0.00 73 1014.8
20191114143514 66 276 7.0 9.0 0.00 0.00 0.00 72 1014.9
20191114143035 66 259 6.0 10.0 0.00 0.00 0.00 72 1015.0
20191114142510 65 304 6.0 10.0 0.00 0.00 0.00 74 1015.0
20191114142009 65 258 6.0 10.0 0.00 0.00 0.00 75 1015.0
20191114141528 65 276 8.0 10.0 0.00 0.00 0.00 75 1015.1
20191114141008 65 270 7.0 10.0 0.00 0.00 0.00 75 1015.1
20191114140508 65 285 7.0 9.0 0.00 0.00 0.00 75 1015.1
20191114140007 65 288 7.0 10.0 0.00 0.00 0.00 75 1015.0
20191114135512 65 251 7.0 10.0 0.00 0.00 0.00 75 1015.1
20191114135005 65 266 8.0 11.0 0.00 0.00 0.00 75 1015.2
20191114134526 65 267 7.0 10.0 0.00 0.00 0.00 75 1015.4
20191114134005 65 269 7.0 10.0 0.00 0.00 0.00 75 1015.3
20191114133504 65 272 7.0 10.0 0.00 0.00 0.00 75 1015.3
20191114133013 65 271 8.0 11.0 0.00 0.00 0.00 75 1015.4
20191114132505 65 248 8.0 11.0 0.00 0.00 0.00 75 1015.5
20191114132003 65 264 7.0 11.0 0.00 0.00 0.00 75 1015.6
20191114131059 65 285 7.0 11.0 0.00 0.00 0.00 75 1015.7
20191114130557 65 290 7.0 10.0 0.00 0.00 0.00 75 1015.8
20191114130236 65 267 6.0 10.0 0.00 0.00 0.00 75 1015.8
20191114125556 64 262 6.0 10.0 0.00 0.00 0.00 75 1015.9
20191114125055 65 263 7.0 11.0 0.00 0.00 0.00 75 1016.1
20191114124607 65 269 8.0 11.0 0.00 0.00 0.00 75 1016.2
20191114124055 65 287 7.0 10.0 0.00 0.00 0.00 75 1016.3
20191114123603 65 266 7.0 10.0 0.00 0.00 0.00 75 1016.3
20191114123204 65 268 8.0 10.0 0.00 0.00 0.00 75 1016.4
20191114122554 65 273 7.0 11.0 0.00 0.00 0.00 75 1016.5
20191114122059 64 283 8.0 11.0 0.00 0.00 0.00 75 1016.6
20191114121655 64 287 7.0 10.0 0.00 0.00 0.00 75 1016.7
20191114121051 65 290 7.0 10.0 0.00 0.00 0.00 75 1016.7
20191114120551 65 289 7.0 11.0 0.00 0.00 0.00 75 1016.9
20191114120223 65 282 8.0 11.0 0.00 0.00 0.00 75 1016.9
20191114115554 65 280 7.0 9.0 0.00 0.00 0.00 75 1016.9
20191114115049 64 283 7.0 9.0 0.00 0.00 0.00 75 1016.9
20191114114632 64 277 6.0 8.0 0.00 0.00 0.00 75 1016.8
20191114114102 64 281 6.0 8.0 0.00 0.00 0.00 75 1016.9
20191114113546 64 271 6.0 8.0 0.00 0.00 0.00 76 1017.0
20191114113302 64 280 6.0 8.0 0.00 0.00 0.00 76 1017.2
20191114112553 64 289 5.0 8.0 0.00 0.00 0.00 77 1017.1
20191114112044 63 271 6.0 8.0 0.00 0.00 0.00 77 1017.2
20191114111618 63 277 6.0 9.0 0.00 0.00 0.00 77 1017.3
20191114111043 63 280 5.0 9.0 0.00 0.00 0.00 77 1017.4
20191114110541 63 278 4.0 7.0 0.00 0.00 0.00 78 1017.5
20191114110111 63 270 5.0 7.0 0.00 0.00 0.00 78 1017.7
20191114105540 63 277 5.0 8.0 0.00 0.00 0.00 78 1017.7
20191114105046 63 278 6.0 8.0 0.00 0.00 0.00 78 1017.8
20191114104646 63 281 4.0 6.0 0.00 0.00 0.00 78 1017.8
20191114104039 63 278 4.0 7.0 0.00 0.00 0.00 77 1017.8
20191114103539 62 289 5.0 7.0 0.00 0.00 0.00 77 1017.8
20191114103100 62 285 4.0 7.0 0.00 0.00 0.00 77 1017.9
20191114102543 62 281 4.0 8.0 0.00 0.00 0.00 77 1017.9
20191114102038 62 282 6.0 8.0 0.00 0.00 0.00 77 1017.9
20191114101651 62 298 5.0 7.0 0.00 0.00 0.00 77 1017.9
20191114101038 62 297 5.0 7.0 0.00 0.00 0.00 77 1017.9
20191114100537 62 301 6.0 8.0 0.00 0.00 0.00 76 1018.0
20191114100132 62 299 6.0 8.0 0.00 0.00 0.00 76 1018.0
20191114095536 62 298 3.0 5.0 0.00 0.00 0.00 76 1018.0
20191114095036 62 292 2.0 3.0 0.00 0.00 0.00 76 1017.9
20191114094634 62 278 2.0 3.0 0.00 0.00 0.00 76 1017.9
20191114094040 62 270 2.0 3.0 0.00 0.00 0.00 76 1017.8
20191114093535 62 284 2.0 4.0 0.00 0.00 0.00 75 1017.9
20191114093059 62 285 3.0 4.0 0.00 0.00 0.00 75 1017.9
20191114092535 63 292 2.0 4.0 0.00 0.00 0.00 74 1017.8
20191114092035 63 218 1.0 4.0 0.00 0.00 0.00 74 1017.7
20191114091658 62 273 2.0 5.0 0.00 0.00 0.00 73 1017.7
20191114091034 63 271 2.0 5.0 0.00 0.00 0.00 74 1017.6
20191114090541 62 131 0.0 4.0 0.00 0.00 0.00 75 1017.6
20191114090118 62 239 1.0 4.0 0.00 0.00 0.00 75 1017.5
20191114085537 61 172 1.0 5.0 0.00 0.00 0.00 75 1017.4
20191114085037 60 220 2.0 5.0 0.00 0.00 0.00 76 1017.4
20191114084549 60 179 1.0 3.0 0.00 0.00 0.00 77 1017.3
20191114084032 60 201 1.0 4.0 0.00 0.00 0.00 77 1017.3
20191114083532 59 178 0.0 4.0 0.00 0.00 0.00 78 1017.2
20191114083039 59 141 0.0 4.0 0.00 0.00 0.00 78 1017.2
20191114082523 58 241 0.0 3.0 0.00 0.00 0.00 78 1017.3
20191114082022 58 174 1.0 5.0 0.00 0.00 0.00 78 1017.2
20191114081535 58 203 1.0 5.0 0.00 0.00 0.00 78 1017.1
20191114081032 57 200 0.0 3.0 0.00 0.00 0.00 78 1017.0
20191114080531 57 210 1.0 3.0 0.00 0.00 0.00 79 1017.0
20191114080039 57 194 0.0 2.0 0.00 0.00 0.00 79 1017.1
20191114075531 57 219 0.0 2.0 0.00 0.00 0.00 79 1017.1
20191114075031 57 214 0.0 1.0 0.00 0.00 0.00 79 1017.2
20191114074557 57 214 0.0 1.0 0.00 0.00 0.00 79 1017.2
20191114074029 57 214 0.0 1.0 0.00 0.00 0.00 79 1017.2
20191114073532 57 214 0.0 1.0 0.00 0.00 0.00 79 1017.2
20191114073040 57 214 0.0 1.0 0.00 0.00 0.00 79 1017.2
20191114072520 56 214 0.0 1.0 0.00 0.00 0.00 79 1017.2
20191114072026 56 214 0.0 1.0 0.00 0.00 0.00 78 1017.1
20191114071533 56 212 0.0 2.0 0.00 0.00 0.00 78 1017.1
20191114071026 56 212 0.0 3.0 0.00 0.00 0.00 78 1017.0
20191114070524 57 225 0.0 4.0 0.00 0.00 0.00 78 1016.8
20191114070043 57 222 1.0 4.0 0.00 0.00 0.00 78 1016.5
20191114065525 57 226 0.0 5.0 0.00 0.00 0.00 78 1016.5
20191114065018 57 198 2.0 5.0 0.00 0.00 0.00 78 1016.5
20191114064538 57 211 2.0 4.0 0.00 0.00 0.00 78 1016.7
20191114064019 58 236 1.0 4.0 0.00 0.00 0.00 79 1016.7
20191114063520 58 237 1.0 3.0 0.00 0.00 0.00 79 1016.8
20191114063028 58 269 1.0 3.0 0.00 0.00 0.00 79 1016.8
20191114062516 57 347 1.0 3.0 0.00 0.00 0.00 78 1016.9
20191114062016 57 105 0.0 2.0 0.00 0.00 0.00 78 1016.8
20191114061541 57 178 0.0 2.0 0.00 0.00 0.00 78 1016.7
20191114061020 57 110 0.0 1.0 0.00 0.00 0.00 78 1016.6
20191114060515 57 218 0.0 2.0 0.00 0.00 0.00 78 1016.5
20191114060033 57 233 0.0 2.0 0.00 0.00 0.00 78 1016.4
20191114055515 57 226 0.0 2.0 0.00 0.00 0.00 78 1016.4
20191114055015 57 203 0.0 2.0 0.00 0.00 0.00 78 1016.3
20191114054524 57 215 0.0 3.0 0.00 0.00 0.00 79 1016.4
20191114054014 57 200 1.0 3.0 0.00 0.00 0.00 79 1016.3
20191114053520 57 200 1.0 3.0 0.00 0.00 0.00 79 1016.3
20191114053040 57 222 1.0 3.0 0.00 0.00 0.00 79 1016.3
20191114052521 57 202 1.0 3.0 0.00 0.00 0.00 79 1016.3
20191114052013 57 160 1.0 3.0 0.00 0.00 0.00 79 1016.3
20191114051530 57 140 0.0 3.0 0.00 0.00 0.00 79 1016.2
20191114051012 57 195 0.0 4.0 0.00 0.00 0.00 79 1016.1
20191114050512 57 153 1.0 4.0 0.00 0.00 0.00 79 1016.1
20191114050033 57 259 0.0 4.0 0.00 0.00 0.00 79 1016.1
20191114045511 57 205 0.0 4.0 0.00 0.00 0.00 79 1016.1
20191114045010 57 143 1.0 3.0 0.00 0.00 0.00 79 1016.2
20191114044511 57 116 0.0 5.0 0.00 0.00 0.00 79 1016.3
20191114044019 57 136 1.0 6.0 0.00 0.00 0.00 79 1016.2
20191114043515 57 124 1.0 4.0 0.00 0.00 0.00 79 1016.3
20191114043014 57 168 1.0 4.0 0.00 0.00 0.00 79 1016.3
20191114042509 57 177 1.0 4.0 0.00 0.00 0.00 79 1016.3
20191114042008 57 200 1.0 4.0 0.00 0.00 0.00 79 1016.3
20191114041513 56 169 1.0 4.0 0.00 0.00 0.00 79 1016.2
20191114041005 56 185 0.0 6.0 0.00 0.00 0.00 79 1016.4
20191114040508 56 207 2.0 6.0 0.00 0.00 0.00 80 1016.4
20191114040011 56 171 2.0 5.0 0.00 0.00 0.00 80 1016.4
20191114035506 56 218 1.0 4.0 0.00 0.00 0.00 80 1016.4
20191114035003 56 160 2.0 3.0 0.00 0.00 0.00 80 1016.6
20191114034515 56 175 1.0 3.0 0.00 0.00 0.00 80 1016.8
20191114034002 56 167 1.0 3.0 0.00 0.00 0.00 80 1016.8
20191114033503 56 205 1.0 4.0 0.00 0.00 0.00 80 1016.7
20191114033003 55 142 1.0 4.0 0.00 0.00 0.00 80 1016.7
20191114032501 55 96 0.0 5.0 0.00 0.00 0.00 80 1016.9
20191114032003 55 137 0.0 5.0 0.00 0.00 0.00 80 1016.9
20191114031504 55 152 1.0 4.0 0.00 0.00 0.00 80 1016.9
20191114031059 55 123 1.0 4.0 0.00 0.00 0.00 80 1016.9
20191114030601 55 143 1.0 3.0 0.00 0.00 0.00 80 1017.0
20191114030312 55 146 0.0 3.0 0.00 0.00 0.00 81 1017.0
20191114025558 55 172 1.0 3.0 0.00 0.00 0.00 81 1017.1
20191114025058 55 195 0.0 3.0 0.00 0.00 0.00 81 1017.2
20191114024628 55 183 0.0 2.0 0.00 0.00 0.00 81 1017.2
20191114024057 55 123 0.0 2.0 0.00 0.00 0.00 81 1017.1
20191114023604 55 182 0.0 3.0 0.00 0.00 0.00 81 1017.2
20191114023214 55 164 0.0 4.0 0.00 0.00 0.00 81 1017.1
20191114022556 55 155 1.0 4.0 0.00 0.00 0.00 81 1017.1
20191114022055 55 127 1.0 4.0 0.00 0.00 0.00 81 1017.2
20191114021730 55 198 0.0 3.0 0.00 0.00 0.00 81 1017.3
20191114021053 55 153 0.0 3.0 0.00 0.00 0.00 81 1017.3
20191114020553 55 176 0.0 3.0 0.00 0.00 0.00 81 1017.3
20191114020113 55 136 0.0 3.0 0.00 0.00 0.00 81 1017.4
20191114015552 55 160 0.0 2.0 0.00 0.00 0.00 81 1017.4
20191114015051 55 90 0.0 2.0 0.00 0.00 0.00 81 1017.5
20191114014652 55 198 0.0 2.0 0.00 0.00 0.00 81 1017.4
20191114014050 55 205 0.0 1.0 0.00 0.00 0.00 81 1017.5
20191114013550 55 219 0.0 2.0 0.00 0.00 0.00 81 1017.5
20191114013205 55 70 0.0 2.0 0.00 0.00 0.00 81 1017.5
20191114012549 54 139 0.0 1.0 0.00 0.00 0.00 81 1017.6
20191114012048 55 133 0.0 1.0 0.00 0.00 0.00 81 1017.7
20191114011600 55 146 0.0 1.0 0.00 0.00 0.00 81 1017.7
20191114011052 55 146 0.0 1.0 0.00 0.00 0.00 81 1017.8
20191114010547 55 102 0.0 1.0 0.00 0.00 0.00 81 1017.8
20191114010140 55 139 0.0 1.0 0.00 0.00 0.00 81 1017.9
20191114005544 54 139 0.0 1.0 0.00 0.00 0.00 81 1017.9
20191114005046 55 139 0.0 1.0 0.00 0.00 0.00 81 1018.0
20191114004624 54 139 0.0 1.0 0.00 0.00 0.00 81 1018.1
20191114004043 54 139 0.0 1.0 0.00 0.00 0.00 81 1018.2
20191114003543 55 139 0.0 1.0 0.00 0.00 0.00 81 1018.3
20191114003113 55 139 0.0 1.0 0.00 0.00 0.00 81 1018.3
20191114002544 55 139 0.0 1.0 0.00 0.00 0.00 81 1018.3
20191114002041 55 139 0.0 1.0 0.00 0.00 0.00 81 1018.4
20191114001605 55 139 0.0 1.0 0.00 0.00 0.00 81 1018.4
20191114001040 55 129 0.0 1.0 0.00 0.00 0.00 81 1018.5
20191114000539 55 129 0.0 1.0 0.00 0.00 0.00 81 1018.5
20191114000105 55 129 0.0 1.0 0.00 0.00 0.00 81 1018.6
20191113235543 55 134 0.0 1.0 0.00 0.00 0.00 81 1018.5
20191113235042 55 145 0.0 1.0 0.00 0.00 0.00 81 1018.6
20191113234617 55 145 0.0 1.0 0.00 0.00 0.00 81 1018.6
20191113234037 55 145 0.0 2.0 0.00 0.00 0.00 81 1018.5
20191113233540 55 144 0.0 2.0 0.00 0.00 0.00 81 1018.5
20191113233133 55 134 0.0 2.0 0.00 0.00 0.00 81 1018.5
20191113232536 55 131 0.0 1.0 0.00 0.00 0.00 81 1018.5
20191113232038 56 195 0.0 1.0 0.00 0.00 0.00 81 1018.6
20191113231620 56 198 0.0 1.0 0.00 0.00 0.00 81 1018.6
20191113231042 56 139 0.0 2.0 0.00 0.00 0.00 81 1018.7
20191113230532 56 139 0.0 2.0 0.00 0.00 0.00 81 1018.6
20191113230120 56 119 0.0 1.0 0.00 0.00 0.00 81 1018.7
20191113225534 56 181 0.0 2.0 0.00 0.00 0.00 81 1018.6
20191113225034 56 155 0.0 2.0 0.00 0.00 0.00 81 1018.7
20191113224539 56 128 0.0 1.0 0.00 0.00 0.00 81 1018.8
20191113224032 56 101 0.0 1.0 0.00 0.00 0.00 81 1018.8
20191113223531 56 101 0.0 1.0 0.00 0.00 0.00 81 1018.8
20191113223058 56 101 0.0 0.0 0.00 0.00 0.00 81 1018.9
20191113222531 56 101 0.0 0.0 0.00 0.00 0.00 81 1018.9
20191113222036 56 101 0.0 1.0 0.00 0.00 0.00 81 1018.8
20191113221628 56 101 0.0 1.0 0.00 0.00 0.00 81 1018.8
20191113221031 56 98 0.0 0.0 0.00 0.00 0.00 80 1019.0
20191113220532 56 98 0.0 0.0 0.00 0.00 0.00 80 1019.1
20191113220049 57 98 0.0 0.0 0.00 0.00 0.00 81 1019.1
20191113215530 57 98 0.0 0.0 0.00 0.00 0.00 80 1019.0
20191113215029 56 98 0.0 1.0 0.00 0.00 0.00 80 1019.1
20191113214555 56 98 0.0 0.0 0.00 0.00 0.00 80 1019.0
20191113214029 56 98 0.0 0.0 0.00 0.00 0.00 80 1019.1
20191113213534 57 98 0.0 0.0 0.00 0.00 0.00 80 1019.1
20191113213134 57 98 0.0 1.0 0.00 0.00 0.00 80 1019.1
20191113212532 57 98 0.0 1.0 0.00 0.00 0.00 80 1019.1
20191113212037 57 98 0.0 0.0 0.00 0.00 0.00 80 1019.0
20191113211551 57 98 0.0 0.0 0.00 0.00 0.00 80 1019.0
20191113211028 58 98 0.0 0.0 0.00 0.00 0.00 80 1018.9
20191113210528 58 98 0.0 0.0 0.00 0.00 0.00 80 1018.9
20191113210118 58 98 0.0 0.0 0.00 0.00 0.00 80 1018.9
20191113205533 58 98 0.0 0.0 0.00 0.00 0.00 80 1018.9
20191113205028 58 98 0.0 0.0 0.00 0.00 0.00 80 1018.9
20191113204621 58 98 0.0 0.0 0.00 0.00 0.00 80 1018.9
20191113204028 58 98 0.0 1.0 0.00 0.00 0.00 79 1018.8
20191113203528 58 98 0.0 1.0 0.00 0.00 0.00 79 1018.7
20191113203057 58 98 0.0 1.0 0.00 0.00 0.00 79 1018.7
20191113202527 58 98 0.0 1.0 0.00 0.00 0.00 79 1018.6
20191113202027 59 96 0.0 1.0 0.00 0.00 0.00 79 1018.6
20191113201615 59 97 0.0 0.0 0.00 0.00 0.00 79 1018.6
20191113201027 59 97 0.0 1.0 0.00 0.00 0.00 79 1018.7
20191113200536 59 97 0.0 1.0 0.00 0.00 0.00 79 1018.5
20191113200114 60 97 0.0 1.0 0.00 0.00 0.00 78 1018.5
20191113195532 60 97 0.0 1.0 0.00 0.00 0.00 78 1018.4
20191113195033 60 97 0.0 1.0 0.00 0.00 0.00 78 1018.4
20191113194600 60 95 0.0 1.0 0.00 0.00 0.00 78 1018.5
20191113194037 61 94 0.0 1.0 0.00 0.00 0.00 78 1018.4
20191113193543 61 94 0.0 1.0 0.00 0.00 0.00 78 1018.5
20191113193059 61 94 0.0 0.0 0.00 0.00 0.00 78 1018.5
20191113192540 61 94 0.0 1.0 0.00 0.00 0.00 78 1018.4
20191113192025 61 94 1.0 1.0 0.00 0.00 0.00 78 1018.5
20191113191558 61 94 1.0 1.0 0.00 0.00 0.00 78 1018.5
20191113191025 61 94 0.0 1.0 0.00 0.00 0.00 78 1018.5
20191113190524 62 94 0.0 1.0 0.00 0.00 0.00 78 1018.6
20191113190109 62 93 0.0 1.0 0.00 0.00 0.00 78 1018.6
20191113185524 62 93 0.0 1.0 0.00 0.00 0.00 78 1018.6
20191113185025 62 86 0.0 1.0 0.00 0.00 0.00 78 1018.6
20191113184603 62 330 1.0 1.0 0.00 0.00 0.00 78 1018.7
20191113184025 62 330 0.0 1.0 0.00 0.00 0.00 78 1018.6
20191113183524 62 330 0.0 1.0 0.00 0.00 0.00 78 1018.7
20191113183040 62 330 0.0 1.0 0.00 0.00 0.00 78 1018.7